Pagina principale
METAR-TAF:

METAR-TAF

Aeroporti :

Aeroporto di Ginevra-Cointrin

Ginevra, Svizzera

latitudine: 46-15N, longitudine: 006-08E, altezza: 420 m

Osservazione

Il bollettino è stato emesso 28 minuti fa, alle 08:20 UTC
Vento 4 kt da est/nord-est
Temperature 11°C
Umidità 100%
Pressione 1009 hPa
Visibilità 10 km o più
Poco nuvoloso ad un'altezza di 400 ft
Nubi sparse ad un'altezza di 1000 ft
Nuvoloso ad un'altezza di 2500 ft
pioggia debole

METAR: LSGG 070820Z 06004KT 9999 -RA FEW004 SCT010 BKN025 11/11 Q1009 TEMPO RA

Ora: 10:48 (08:48 UTC)

Previsione

Il bollettino è stato emesso 23 minuti fa, alle 08:25 UTC
Previsione valida dal 07 alle 09 UTC al 08 alle 15 UTC
Vento 4 kt da nord/nord-est
Visibilità 10 km o più
Poco nuvoloso ad un'altezza di 1000 ft
Nuvoloso ad un'altezza di 4500 ft

TAF: LSGG 070825Z 0709/0815 03004KT 9999 FEW010 BKN045 TX16/0715Z TN10/0805Z TX18/0815Z

Osservazioni e previsioni meteorologiche di più di 4000 aeroporti (messaggi METAR e TAF).

Le stazioni disponibili sono rappresentate dai dischi gialli e rossi sulla carta.

Puntare il mouse per vedere il nome della stazione.

Clicca sopra per visualizzare le osservazioni e previsioni meteorologiche.

Per cambiare la mappa : fare clic sui pulsanti verdi con una croce nera per ingrandire, il pulsante verde con un trattino per diminuire, o sulla freccia verde per le mappe adiacenti.


METAR-TAF: